sensor_id;sensor_type;location;lat;lon;timestamp;P1;durP1;ratioP1;P2;durP2;ratioP2
56161;SDS011;42045;52.986;6.014;2023-08-01T00:00:47;9.80;;;4.40;;
56161;SDS011;42045;52.986;6.014;2023-08-01T00:03:13;12.13;;;5.60;;
56161;SDS011;42045;52.986;6.014;2023-08-01T00:05:39;8.40;;;4.22;;
56161;SDS011;42045;52.986;6.014;2023-08-01T00:08:13;9.40;;;4.57;;
56161;SDS011;42045;52.986;6.014;2023-08-01T00:10:39;13.60;;;4.70;;
56161;SDS011;42045;52.986;6.014;2023-08-01T00:13:06;11.55;;;5.50;;
56161;SDS011;42045;52.986;6.014;2023-08-01T00:15:32;9.77;;;4.93;;
56161;SDS011;42045;52.986;6.014;2023-08-01T00:17:57;13.25;;;5.53;;
56161;SDS011;42045;52.986;6.014;2023-08-01T00:20:23;10.35;;;4.82;;
56161;SDS011;42045;52.986;6.014;2023-08-01T00:22:50;13.38;;;6.00;;
56161;SDS011;42045;52.986;6.014;2023-08-01T00:25:16;13.70;;;5.70;;
56161;SDS011;42045;52.986;6.014;2023-08-01T00:27:42;12.63;;;6.30;;
56161;SDS011;42045;52.986;6.014;2023-08-01T00:30:08;18.15;;;7.10;;
56161;SDS011;42045;52.986;6.014;2023-08-01T00:32:35;17.55;;;7.57;;
56161;SDS011;42045;52.986;6.014;2023-08-01T00:35:00;15.05;;;7.28;;
56161;SDS011;42045;52.986;6.014;2023-08-01T00:37:26;15.10;;;6.95;;
56161;SDS011;42045;52.986;6.014;2023-08-01T00:39:52;17.02;;;7.10;;
56161;SDS011;42045;52.986;6.014;2023-08-01T00:42:17;14.82;;;6.88;;
56161;SDS011;42045;52.986;6.014;2023-08-01T00:44:43;16.00;;;7.00;;
56161;SDS011;42045;52.986;6.014;2023-08-01T00:47:09;15.65;;;6.78;;
56161;SDS011;42045;52.986;6.014;2023-08-01T00:49:35;10.82;;;6.10;;
56161;SDS011;42045;52.986;6.014;2023-08-01T00:52:01;14.30;;;6.63;;
56161;SDS011;42045;52.986;6.014;2023-08-01T00:54:27;13.85;;;6.10;;
56161;SDS011;42045;52.986;6.014;2023-08-01T00:56:53;12.85;;;6.65;;
56161;SDS011;42045;52.986;6.014;2023-08-01T00:59:19;12.32;;;6.13;;
56161;SDS011;42045;52.986;6.014;2023-08-01T01:01:45;13.38;;;6.82;;
56161;SDS011;42045;52.986;6.014;2023-08-01T01:04:10;11.32;;;6.60;;
56161;SDS011;42045;52.986;6.014;2023-08-01T01:06:52;13.63;;;6.63;;
56161;SDS011;42045;52.986;6.014;2023-08-01T01:09:27;10.38;;;6.65;;
56161;SDS011;42045;52.986;6.014;2023-08-01T01:11:54;19.20;;;7.95;;
56161;SDS011;42045;52.986;6.014;2023-08-01T01:14:20;14.63;;;8.00;;
56161;SDS011;42045;52.986;6.014;2023-08-01T01:16:45;20.85;;;9.55;;
56161;SDS011;42045;52.986;6.014;2023-08-01T01:19:11;19.25;;;10.13;;
56161;SDS011;42045;52.986;6.014;2023-08-01T01:21:40;17.50;;;9.90;;
56161;SDS011;42045;52.986;6.014;2023-08-01T01:24:08;22.63;;;10.20;;
56161;SDS011;42045;52.986;6.014;2023-08-01T01:26:37;21.95;;;10.88;;
56161;SDS011;42045;52.986;6.014;2023-08-01T01:29:03;14.68;;;8.82;;
56161;SDS011;42045;52.986;6.014;2023-08-01T01:31:31;22.63;;;9.15;;
56161;SDS011;42045;52.986;6.014;2023-08-01T01:33:58;20.95;;;8.98;;
56161;SDS011;42045;52.986;6.014;2023-08-01T01:36:24;20.10;;;9.15;;
56161;SDS011;42045;52.986;6.014;2023-08-01T01:38:49;26.20;;;9.52;;
56161;SDS011;42045;52.986;6.014;2023-08-01T01:41:15;20.85;;;9.23;;
56161;SDS011;42045;52.986;6.014;2023-08-01T01:43:41;23.52;;;9.50;;
56161;SDS011;42045;52.986;6.014;2023-08-01T01:46:06;17.88;;;8.52;;
56161;SDS011;42045;52.986;6.014;2023-08-01T01:48:32;19.50;;;9.32;;
56161;SDS011;42045;52.986;6.014;2023-08-01T01:50:58;15.43;;;8.25;;
56161;SDS011;42045;52.986;6.014;2023-08-01T01:53:24;19.92;;;8.25;;
56161;SDS011;42045;52.986;6.014;2023-08-01T01:55:49;18.75;;;8.80;;
56161;SDS011;42045;52.986;6.014;2023-08-01T01:58:15;16.65;;;8.23;;
56161;SDS011;42045;52.986;6.014;2023-08-01T02:00:41;22.15;;;9.20;;
56161;SDS011;42045;52.986;6.014;2023-08-01T02:03:06;24.88;;;10.10;;
56161;SDS011;42045;52.986;6.014;2023-08-01T02:05:35;23.48;;;9.70;;
56161;SDS011;42045;52.986;6.014;2023-08-01T02:08:01;19.48;;;8.98;;
56161;SDS011;42045;52.986;6.014;2023-08-01T02:10:27;21.63;;;8.52;;
56161;SDS011;42045;52.986;6.014;2023-08-01T02:12:52;20.98;;;9.38;;
56161;SDS011;42045;52.986;6.014;2023-08-01T02:15:18;21.23;;;8.57;;
56161;SDS011;42045;52.986;6.014;2023-08-01T02:17:43;20.02;;;8.75;;
56161;SDS011;42045;52.986;6.014;2023-08-01T02:20:09;22.67;;;10.02;;
56161;SDS011;42045;52.986;6.014;2023-08-01T02:22:35;19.80;;;8.93;;
56161;SDS011;42045;52.986;6.014;2023-08-01T02:25:01;22.40;;;8.55;;
56161;SDS011;42045;52.986;6.014;2023-08-01T02:27:26;23.35;;;9.52;;
56161;SDS011;42045;52.986;6.014;2023-08-01T02:29:52;22.20;;;9.35;;
56161;SDS011;42045;52.986;6.014;2023-08-01T02:32:18;19.00;;;7.85;;
56161;SDS011;42045;52.986;6.014;2023-08-01T02:34:43;14.02;;;6.00;;
56161;SDS011;42045;52.986;6.014;2023-08-01T02:37:09;8.07;;;4.03;;
56161;SDS011;42045;52.986;6.014;2023-08-01T02:39:35;13.07;;;3.85;;
56161;SDS011;42045;52.986;6.014;2023-08-01T02:42:00;9.18;;;2.50;;
56161;SDS011;42045;52.986;6.014;2023-08-01T02:44:26;6.60;;;2.45;;
56161;SDS011;42045;52.986;6.014;2023-08-01T02:46:52;10.07;;;3.25;;
56161;SDS011;42045;52.986;6.014;2023-08-01T02:49:18;10.43;;;2.47;;
56161;SDS011;42045;52.986;6.014;2023-08-01T02:51:43;9.05;;;2.22;;
56161;SDS011;42045;52.986;6.014;2023-08-01T02:54:09;7.40;;;2.10;;
56161;SDS011;42045;52.986;6.014;2023-08-01T02:56:34;6.82;;;2.63;;
56161;SDS011;42045;52.986;6.014;2023-08-01T02:59:02;10.15;;;2.38;;
56161;SDS011;42045;52.986;6.014;2023-08-01T03:01:29;5.25;;;2.00;;
56161;SDS011;42045;52.986;6.014;2023-08-01T03:03:55;7.72;;;2.42;;
56161;SDS011;42045;52.986;6.014;2023-08-01T03:06:21;6.20;;;2.13;;
56161;SDS011;42045;52.986;6.014;2023-08-01T03:08:47;6.03;;;2.55;;
56161;SDS011;42045;52.986;6.014;2023-08-01T03:11:12;9.98;;;2.28;;
56161;SDS011;42045;52.986;6.014;2023-08-01T03:13:38;4.80;;;2.08;;
56161;SDS011;42045;52.986;6.014;2023-08-01T03:16:04;9.02;;;2.72;;
56161;SDS011;42045;52.986;6.014;2023-08-01T03:18:29;8.95;;;3.63;;
56161;SDS011;42045;52.986;6.014;2023-08-01T03:20:55;6.25;;;2.83;;
56161;SDS011;42045;52.986;6.014;2023-08-01T03:23:20;8.95;;;3.35;;
56161;SDS011;42045;52.986;6.014;2023-08-01T03:25:46;11.18;;;3.75;;
56161;SDS011;42045;52.986;6.014;2023-08-01T03:28:12;9.63;;;4.55;;
56161;SDS011;42045;52.986;6.014;2023-08-01T03:30:39;7.93;;;4.03;;
56161;SDS011;42045;52.986;6.014;2023-08-01T03:33:04;7.97;;;3.55;;
56161;SDS011;42045;52.986;6.014;2023-08-01T03:35:30;12.18;;;4.40;;
56161;SDS011;42045;52.986;6.014;2023-08-01T03:37:56;10.45;;;3.90;;
56161;SDS011;42045;52.986;6.014;2023-08-01T03:40:21;12.32;;;4.85;;
56161;SDS011;42045;52.986;6.014;2023-08-01T03:42:47;10.43;;;5.13;;
56161;SDS011;42045;52.986;6.014;2023-08-01T03:45:13;10.10;;;5.78;;
56161;SDS011;42045;52.986;6.014;2023-08-01T03:47:39;8.40;;;5.30;;
56161;SDS011;42045;52.986;6.014;2023-08-01T03:50:05;9.32;;;5.38;;
56161;SDS011;42045;52.986;6.014;2023-08-01T03:52:30;8.10;;;5.47;;
56161;SDS011;42045;52.986;6.014;2023-08-01T03:54:57;5.68;;;3.95;;
56161;SDS011;42045;52.986;6.014;2023-08-01T03:57:22;7.15;;;3.38;;
56161;SDS011;42045;52.986;6.014;2023-08-01T03:59:48;7.00;;;4.22;;
56161;SDS011;42045;52.986;6.014;2023-08-01T04:02:14;7.53;;;3.80;;
56161;SDS011;42045;52.986;6.014;2023-08-01T04:04:39;7.85;;;3.78;;
56161;SDS011;42045;52.986;6.014;2023-08-01T04:07:05;5.22;;;2.38;;
56161;SDS011;42045;52.986;6.014;2023-08-01T04:09:31;5.72;;;2.20;;
56161;SDS011;42045;52.986;6.014;2023-08-01T04:11:56;5.38;;;2.15;;
56161;SDS011;42045;52.986;6.014;2023-08-01T04:14:22;5.13;;;2.50;;
56161;SDS011;42045;52.986;6.014;2023-08-01T04:16:48;7.40;;;2.50;;
56161;SDS011;42045;52.986;6.014;2023-08-01T04:19:13;6.05;;;2.22;;
56161;SDS011;42045;52.986;6.014;2023-08-01T04:21:39;6.45;;;2.17;;
56161;SDS011;42045;52.986;6.014;2023-08-01T04:24:05;6.43;;;2.65;;
56161;SDS011;42045;52.986;6.014;2023-08-01T04:26:30;9.93;;;2.30;;
56161;SDS011;42045;52.986;6.014;2023-08-01T04:28:56;6.28;;;2.67;;
56161;SDS011;42045;52.986;6.014;2023-08-01T04:31:22;5.32;;;2.70;;
56161;SDS011;42045;52.986;6.014;2023-08-01T04:33:47;5.88;;;2.95;;
56161;SDS011;42045;52.986;6.014;2023-08-01T04:36:13;11.18;;;3.22;;
56161;SDS011;42045;52.986;6.014;2023-08-01T04:38:39;7.70;;;3.38;;
56161;SDS011;42045;52.986;6.014;2023-08-01T04:41:05;7.85;;;3.33;;
56161;SDS011;42045;52.986;6.014;2023-08-01T04:43:30;6.85;;;4.22;;
56161;SDS011;42045;52.986;6.014;2023-08-01T04:45:56;8.95;;;3.50;;
56161;SDS011;42045;52.986;6.014;2023-08-01T04:48:22;10.27;;;3.78;;
56161;SDS011;42045;52.986;6.014;2023-08-01T04:50:47;8.93;;;3.55;;
56161;SDS011;42045;52.986;6.014;2023-08-01T04:53:13;5.60;;;3.67;;
56161;SDS011;42045;52.986;6.014;2023-08-01T04:55:39;5.10;;;3.17;;
56161;SDS011;42045;52.986;6.014;2023-08-01T04:58:05;6.38;;;3.35;;
56161;SDS011;42045;52.986;6.014;2023-08-01T05:00:31;7.63;;;3.13;;
56161;SDS011;42045;52.986;6.014;2023-08-01T05:02:56;4.80;;;2.90;;
56161;SDS011;42045;52.986;6.014;2023-08-01T05:05:22;5.57;;;3.42;;
56161;SDS011;42045;52.986;6.014;2023-08-01T05:07:48;6.68;;;3.00;;
56161;SDS011;42045;52.986;6.014;2023-08-01T05:10:13;4.40;;;2.70;;
56161;SDS011;42045;52.986;6.014;2023-08-01T05:12:39;5.22;;;2.63;;
56161;SDS011;42045;52.986;6.014;2023-08-01T05:15:05;5.68;;;2.55;;
56161;SDS011;42045;52.986;6.014;2023-08-01T05:17:31;5.55;;;2.22;;
56161;SDS011;42045;52.986;6.014;2023-08-01T05:19:57;5.20;;;2.30;;
56161;SDS011;42045;52.986;6.014;2023-08-01T05:22:22;5.60;;;2.53;;
56161;SDS011;42045;52.986;6.014;2023-08-01T05:24:48;5.95;;;2.63;;
56161;SDS011;42045;52.986;6.014;2023-08-01T05:27:13;7.45;;;2.70;;
56161;SDS011;42045;52.986;6.014;2023-08-01T05:29:39;8.25;;;3.03;;
56161;SDS011;42045;52.986;6.014;2023-08-01T05:32:05;3.72;;;2.22;;
56161;SDS011;42045;52.986;6.014;2023-08-01T05:34:31;5.10;;;2.58;;
56161;SDS011;42045;52.986;6.014;2023-08-01T05:36:56;4.55;;;2.45;;
56161;SDS011;42045;52.986;6.014;2023-08-01T05:39:22;7.72;;;2.58;;
56161;SDS011;42045;52.986;6.014;2023-08-01T05:41:48;7.35;;;2.97;;
56161;SDS011;42045;52.986;6.014;2023-08-01T05:44:15;7.32;;;3.28;;
56161;SDS011;42045;52.986;6.014;2023-08-01T05:46:40;7.63;;;3.60;;
56161;SDS011;42045;52.986;6.014;2023-08-01T05:49:06;13.45;;;3.53;;
56161;SDS011;42045;52.986;6.014;2023-08-01T05:51:32;7.18;;;3.28;;
56161;SDS011;42045;52.986;6.014;2023-08-01T05:53:57;8.32;;;3.78;;
56161;SDS011;42045;52.986;6.014;2023-08-01T05:56:23;8.07;;;3.80;;
56161;SDS011;42045;52.986;6.014;2023-08-01T05:58:49;10.00;;;3.88;;
56161;SDS011;42045;52.986;6.014;2023-08-01T06:01:15;11.00;;;3.67;;
56161;SDS011;42045;52.986;6.014;2023-08-01T06:03:41;8.45;;;3.28;;
56161;SDS011;42045;52.986;6.014;2023-08-01T06:06:07;8.25;;;3.05;;
56161;SDS011;42045;52.986;6.014;2023-08-01T06:08:33;7.03;;;2.65;;
56161;SDS011;42045;52.986;6.014;2023-08-01T06:10:59;12.27;;;3.05;;
56161;SDS011;42045;52.986;6.014;2023-08-01T06:13:25;8.38;;;2.13;;
56161;SDS011;42045;52.986;6.014;2023-08-01T06:15:50;11.52;;;2.33;;
56161;SDS011;42045;52.986;6.014;2023-08-01T06:18:16;10.57;;;2.30;;
56161;SDS011;42045;52.986;6.014;2023-08-01T06:20:41;11.63;;;2.45;;
56161;SDS011;42045;52.986;6.014;2023-08-01T06:23:07;8.63;;;2.20;;
56161;SDS011;42045;52.986;6.014;2023-08-01T06:25:33;8.35;;;2.30;;
56161;SDS011;42045;52.986;6.014;2023-08-01T06:27:58;10.65;;;2.45;;
56161;SDS011;42045;52.986;6.014;2023-08-01T06:30:24;8.30;;;1.85;;
56161;SDS011;42045;52.986;6.014;2023-08-01T06:32:50;7.40;;;1.52;;
56161;SDS011;42045;52.986;6.014;2023-08-01T06:35:15;8.88;;;1.83;;
56161;SDS011;42045;52.986;6.014;2023-08-01T06:37:41;11.73;;;2.70;;
56161;SDS011;42045;52.986;6.014;2023-08-01T06:40:07;12.55;;;2.35;;
56161;SDS011;42045;52.986;6.014;2023-08-01T06:42:33;12.25;;;2.42;;
56161;SDS011;42045;52.986;6.014;2023-08-01T06:44:59;19.40;;;2.20;;
56161;SDS011;42045;52.986;6.014;2023-08-01T06:47:24;13.63;;;2.60;;
56161;SDS011;42045;52.986;6.014;2023-08-01T06:49:50;13.25;;;2.83;;
56161;SDS011;42045;52.986;6.014;2023-08-01T06:52:15;9.13;;;2.30;;
56161;SDS011;42045;52.986;6.014;2023-08-01T06:54:41;8.75;;;1.70;;
56161;SDS011;42045;52.986;6.014;2023-08-01T06:57:07;6.10;;;1.70;;
56161;SDS011;42045;52.986;6.014;2023-08-01T06:59:33;5.85;;;1.75;;
56161;SDS011;42045;52.986;6.014;2023-08-01T07:01:58;6.50;;;2.00;;
56161;SDS011;42045;52.986;6.014;2023-08-01T07:04:25;11.10;;;2.15;;
56161;SDS011;42045;52.986;6.014;2023-08-01T07:06:51;10.43;;;2.20;;
56161;SDS011;42045;52.986;6.014;2023-08-01T07:09:16;7.10;;;2.03;;
56161;SDS011;42045;52.986;6.014;2023-08-01T07:11:42;5.85;;;2.03;;
56161;SDS011;42045;52.986;6.014;2023-08-01T07:14:07;14.48;;;2.72;;
56161;SDS011;42045;52.986;6.014;2023-08-01T07:16:33;7.32;;;2.20;;
56161;SDS011;42045;52.986;6.014;2023-08-01T07:19:02;5.88;;;1.85;;
56161;SDS011;42045;52.986;6.014;2023-08-01T07:21:27;7.65;;;2.08;;
56161;SDS011;42045;52.986;6.014;2023-08-01T07:23:54;8.07;;;2.25;;
56161;SDS011;42045;52.986;6.014;2023-08-01T07:26:19;6.53;;;2.20;;
56161;SDS011;42045;52.986;6.014;2023-08-01T07:28:45;8.48;;;2.58;;
56161;SDS011;42045;52.986;6.014;2023-08-01T07:31:11;9.60;;;2.90;;
56161;SDS011;42045;52.986;6.014;2023-08-01T07:33:36;9.13;;;2.30;;
56161;SDS011;42045;52.986;6.014;2023-08-01T07:36:03;11.65;;;3.35;;
56161;SDS011;42045;52.986;6.014;2023-08-01T07:38:28;8.98;;;2.67;;
56161;SDS011;42045;52.986;6.014;2023-08-01T07:40:56;13.07;;;2.65;;
56161;SDS011;42045;52.986;6.014;2023-08-01T07:43:22;7.70;;;2.20;;
56161;SDS011;42045;52.986;6.014;2023-08-01T07:45:48;7.57;;;2.83;;
56161;SDS011;42045;52.986;6.014;2023-08-01T07:48:15;6.63;;;2.03;;
56161;SDS011;42045;52.986;6.014;2023-08-01T07:50:41;8.05;;;2.45;;
56161;SDS011;42045;52.986;6.014;2023-08-01T07:53:07;7.15;;;2.33;;
56161;SDS011;42045;52.986;6.014;2023-08-01T07:55:33;8.80;;;2.55;;
56161;SDS011;42045;52.986;6.014;2023-08-01T07:57:59;8.43;;;2.53;;
56161;SDS011;42045;52.986;6.014;2023-08-01T08:00:25;5.47;;;2.55;;
56161;SDS011;42045;52.986;6.014;2023-08-01T08:02:53;8.48;;;2.97;;
56161;SDS011;42045;52.986;6.014;2023-08-01T08:05:18;13.77;;;3.60;;
56161;SDS011;42045;52.986;6.014;2023-08-01T08:07:44;7.53;;;2.63;;
56161;SDS011;42045;52.986;6.014;2023-08-01T08:10:10;8.57;;;3.03;;
56161;SDS011;42045;52.986;6.014;2023-08-01T08:12:35;8.18;;;2.92;;
56161;SDS011;42045;52.986;6.014;2023-08-01T08:15:01;11.57;;;2.55;;
56161;SDS011;42045;52.986;6.014;2023-08-01T08:17:27;5.78;;;2.30;;
56161;SDS011;42045;52.986;6.014;2023-08-01T08:19:53;8.60;;;2.53;;
56161;SDS011;42045;52.986;6.014;2023-08-01T08:22:18;10.38;;;3.38;;
56161;SDS011;42045;52.986;6.014;2023-08-01T08:24:44;5.97;;;2.28;;
56161;SDS011;42045;52.986;6.014;2023-08-01T08:27:10;7.47;;;2.60;;
56161;SDS011;42045;52.986;6.014;2023-08-01T08:29:35;9.90;;;3.03;;
56161;SDS011;42045;52.986;6.014;2023-08-01T08:32:01;7.38;;;2.78;;
56161;SDS011;42045;52.986;6.014;2023-08-01T08:34:27;8.25;;;2.70;;
56161;SDS011;42045;52.986;6.014;2023-08-01T08:36:53;9.25;;;3.22;;
56161;SDS011;42045;52.986;6.014;2023-08-01T08:39:18;10.35;;;3.83;;
56161;SDS011;42045;52.986;6.014;2023-08-01T08:41:47;10.05;;;3.05;;
56161;SDS011;42045;52.986;6.014;2023-08-01T08:44:17;9.70;;;2.97;;
56161;SDS011;42045;52.986;6.014;2023-08-01T08:46:51;7.47;;;3.20;;
56161;SDS011;42045;52.986;6.014;2023-08-01T08:49:17;9.70;;;2.92;;
56161;SDS011;42045;52.986;6.014;2023-08-01T08:51:47;8.10;;;3.20;;
56161;SDS011;42045;52.986;6.014;2023-08-01T08:54:14;8.05;;;2.75;;
56161;SDS011;42045;52.986;6.014;2023-08-01T08:56:41;8.88;;;3.33;;
56161;SDS011;42045;52.986;6.014;2023-08-01T08:59:07;9.75;;;4.03;;
56161;SDS011;42045;52.986;6.014;2023-08-01T09:01:35;5.72;;;3.45;;
56161;SDS011;42045;52.986;6.014;2023-08-01T09:04:05;14.40;;;4.13;;
56161;SDS011;42045;52.986;6.014;2023-08-01T09:06:32;10.30;;;3.78;;
56161;SDS011;42045;52.986;6.014;2023-08-01T09:11:27;10.43;;;4.07;;
56161;SDS011;42045;52.986;6.014;2023-08-01T09:13:53;14.27;;;5.00;;
56161;SDS011;42045;52.986;6.014;2023-08-01T09:16:18;9.00;;;4.00;;
56161;SDS011;42045;52.986;6.014;2023-08-01T09:18:51;11.32;;;4.70;;
56161;SDS011;42045;52.986;6.014;2023-08-01T09:21:21;11.40;;;4.28;;
56161;SDS011;42045;52.986;6.014;2023-08-01T09:23:47;14.20;;;3.45;;
56161;SDS011;42045;52.986;6.014;2023-08-01T09:26:16;13.82;;;4.28;;
56161;SDS011;42045;52.986;6.014;2023-08-01T09:28:43;28.27;;;4.65;;
56161;SDS011;42045;52.986;6.014;2023-08-01T09:31:09;6.18;;;2.65;;
56161;SDS011;42045;52.986;6.014;2023-08-01T09:33:40;5.68;;;2.20;;
56161;SDS011;42045;52.986;6.014;2023-08-01T09:36:07;21.50;;;4.30;;
56161;SDS011;42045;52.986;6.014;2023-08-01T09:38:36;10.10;;;2.92;;
56161;SDS011;42045;52.986;6.014;2023-08-01T09:41:03;9.15;;;2.90;;
56161;SDS011;42045;52.986;6.014;2023-08-01T09:43:33;7.43;;;2.83;;
56161;SDS011;42045;52.986;6.014;2023-08-01T09:46:02;7.85;;;2.72;;
56161;SDS011;42045;52.986;6.014;2023-08-01T09:48:31;13.15;;;3.78;;
56161;SDS011;42045;52.986;6.014;2023-08-01T09:51:10;9.13;;;3.28;;
56161;SDS011;42045;52.986;6.014;2023-08-01T09:53:50;8.65;;;3.58;;
56161;SDS011;42045;52.986;6.014;2023-08-01T09:56:19;8.65;;;3.08;;
56161;SDS011;42045;52.986;6.014;2023-08-01T09:58:49;6.63;;;2.80;;
56161;SDS011;42045;52.986;6.014;2023-08-01T10:01:17;8.80;;;3.55;;
56161;SDS011;42045;52.986;6.014;2023-08-01T10:03:48;12.05;;;3.42;;
56161;SDS011;42045;52.986;6.014;2023-08-01T10:06:17;13.07;;;3.60;;
56161;SDS011;42045;52.986;6.014;2023-08-01T10:08:44;11.13;;;3.95;;
56161;SDS011;42045;52.986;6.014;2023-08-01T10:11:12;19.45;;;5.18;;
56161;SDS011;42045;52.986;6.014;2023-08-01T10:13:41;8.85;;;3.80;;
56161;SDS011;42045;52.986;6.014;2023-08-01T10:16:07;10.35;;;3.58;;
56161;SDS011;42045;52.986;6.014;2023-08-01T10:18:34;24.17;;;9.23;;
56161;SDS011;42045;52.986;6.014;2023-08-01T10:21:02;15.32;;;3.63;;
56161;SDS011;42045;52.986;6.014;2023-08-01T10:23:32;10.40;;;2.70;;
56161;SDS011;42045;52.986;6.014;2023-08-01T10:25:59;11.02;;;2.50;;
56161;SDS011;42045;52.986;6.014;2023-08-01T10:28:32;12.32;;;2.65;;
56161;SDS011;42045;52.986;6.014;2023-08-01T10:33:38;7.70;;;2.30;;
56161;SDS011;42045;52.986;6.014;2023-08-01T10:38:55;13.10;;;3.25;;
56161;SDS011;42045;52.986;6.014;2023-08-01T10:41:26;10.40;;;2.45;;
56161;SDS011;42045;52.986;6.014;2023-08-01T10:46:51;7.18;;;2.42;;
56161;SDS011;42045;52.986;6.014;2023-08-01T10:49:18;8.10;;;2.00;;
56161;SDS011;42045;52.986;6.014;2023-08-01T10:51:44;10.88;;;2.67;;
56161;SDS011;42045;52.986;6.014;2023-08-01T10:54:23;7.65;;;2.58;;
56161;SDS011;42045;52.986;6.014;2023-08-01T10:56:51;10.55;;;2.60;;
56161;SDS011;42045;52.986;6.014;2023-08-01T10:59:18;10.20;;;2.90;;
56161;SDS011;42045;52.986;6.014;2023-08-01T11:01:45;9.05;;;2.63;;
56161;SDS011;42045;52.986;6.014;2023-08-01T11:04:13;10.13;;;2.83;;
56161;SDS011;42045;52.986;6.014;2023-08-01T11:06:46;9.35;;;2.58;;
56161;SDS011;42045;52.986;6.014;2023-08-01T11:09:25;12.25;;;2.58;;
56161;SDS011;42045;52.986;6.014;2023-08-01T11:11:55;8.68;;;2.55;;
56161;SDS011;42045;52.986;6.014;2023-08-01T11:14:28;8.73;;;2.17;;
56161;SDS011;42045;52.986;6.014;2023-08-01T11:16:55;8.30;;;2.75;;
56161;SDS011;42045;52.986;6.014;2023-08-01T11:19:25;10.43;;;2.63;;
56161;SDS011;42045;52.986;6.014;2023-08-01T11:21:55;7.43;;;2.35;;
56161;SDS011;42045;52.986;6.014;2023-08-01T11:24:22;10.18;;;2.13;;
56161;SDS011;42045;52.986;6.014;2023-08-01T11:26:48;16.05;;;2.38;;
56161;SDS011;42045;52.986;6.014;2023-08-01T11:29:16;8.50;;;2.40;;
56161;SDS011;42045;52.986;6.014;2023-08-01T11:31:55;10.85;;;3.65;;
56161;SDS011;42045;52.986;6.014;2023-08-01T11:34:22;8.20;;;2.63;;
56161;SDS011;42045;52.986;6.014;2023-08-01T11:36:48;11.63;;;2.80;;
56161;SDS011;42045;52.986;6.014;2023-08-01T11:39:15;6.75;;;2.70;;
56161;SDS011;42045;52.986;6.014;2023-08-01T11:41:42;10.10;;;2.92;;
56161;SDS011;42045;52.986;6.014;2023-08-01T11:44:08;9.07;;;2.67;;
56161;SDS011;42045;52.986;6.014;2023-08-01T11:46:36;9.65;;;2.83;;
56161;SDS011;42045;52.986;6.014;2023-08-01T11:49:03;10.10;;;3.03;;
56161;SDS011;42045;52.986;6.014;2023-08-01T11:51:30;8.48;;;2.20;;
56161;SDS011;42045;52.986;6.014;2023-08-01T11:54:04;10.68;;;2.85;;
56161;SDS011;42045;52.986;6.014;2023-08-01T11:56:31;9.88;;;2.35;;
56161;SDS011;42045;52.986;6.014;2023-08-01T11:58:57;8.25;;;2.53;;
56161;SDS011;42045;52.986;6.014;2023-08-01T12:01:23;7.38;;;2.13;;
56161;SDS011;42045;52.986;6.014;2023-08-01T12:03:50;12.18;;;2.95;;
56161;SDS011;42045;52.986;6.014;2023-08-01T12:06:17;8.02;;;2.42;;
56161;SDS011;42045;52.986;6.014;2023-08-01T12:08:45;9.52;;;2.50;;
56161;SDS011;42045;52.986;6.014;2023-08-01T12:11:21;10.13;;;2.55;;
56161;SDS011;42045;52.986;6.014;2023-08-01T12:14:00;8.95;;;2.33;;
56161;SDS011;42045;52.986;6.014;2023-08-01T12:16:35;8.73;;;2.08;;
56161;SDS011;42045;52.986;6.014;2023-08-01T12:19:01;7.60;;;2.40;;
56161;SDS011;42045;52.986;6.014;2023-08-01T12:21:28;9.15;;;2.47;;
56161;SDS011;42045;52.986;6.014;2023-08-01T12:23:54;14.98;;;3.35;;
56161;SDS011;42045;52.986;6.014;2023-08-01T12:26:20;7.10;;;2.45;;
56161;SDS011;42045;52.986;6.014;2023-08-01T12:28:46;8.65;;;2.60;;
56161;SDS011;42045;52.986;6.014;2023-08-01T12:31:15;7.13;;;2.15;;
56161;SDS011;42045;52.986;6.014;2023-08-01T12:33:45;8.32;;;1.80;;
56161;SDS011;42045;52.986;6.014;2023-08-01T12:36:12;17.70;;;3.03;;
56161;SDS011;42045;52.986;6.014;2023-08-01T12:38:39;5.57;;;2.15;;
56161;SDS011;42045;52.986;6.014;2023-08-01T12:41:05;4.70;;;1.40;;
56161;SDS011;42045;52.986;6.014;2023-08-01T12:43:31;3.45;;;1.75;;
56161;SDS011;42045;52.986;6.014;2023-08-01T12:45:57;4.00;;;1.30;;
56161;SDS011;42045;52.986;6.014;2023-08-01T12:48:23;6.03;;;1.75;;
56161;SDS011;42045;52.986;6.014;2023-08-01T12:50:49;5.25;;;1.63;;
56161;SDS011;42045;52.986;6.014;2023-08-01T12:53:15;5.05;;;1.70;;
56161;SDS011;42045;52.986;6.014;2023-08-01T12:55:44;5.00;;;1.92;;
56161;SDS011;42045;52.986;6.014;2023-08-01T12:58:10;5.95;;;1.90;;
56161;SDS011;42045;52.986;6.014;2023-08-01T13:00:36;5.20;;;1.60;;
56161;SDS011;42045;52.986;6.014;2023-08-01T13:03:02;5.55;;;2.20;;
56161;SDS011;42045;52.986;6.014;2023-08-01T13:05:28;7.32;;;2.17;;
56161;SDS011;42045;52.986;6.014;2023-08-01T13:07:54;4.90;;;1.95;;
56161;SDS011;42045;52.986;6.014;2023-08-01T13:10:19;7.97;;;2.42;;
56161;SDS011;42045;52.986;6.014;2023-08-01T13:12:45;6.70;;;2.30;;
56161;SDS011;42045;52.986;6.014;2023-08-01T13:15:10;4.18;;;1.60;;
56161;SDS011;42045;52.986;6.014;2023-08-01T13:17:36;3.75;;;2.03;;
56161;SDS011;42045;52.986;6.014;2023-08-01T13:20:03;2.90;;;1.65;;
56161;SDS011;42045;52.986;6.014;2023-08-01T13:22:29;3.30;;;1.60;;
56161;SDS011;42045;52.986;6.014;2023-08-01T13:24:55;8.68;;;2.00;;
56161;SDS011;42045;52.986;6.014;2023-08-01T13:27:20;5.78;;;2.35;;
56161;SDS011;42045;52.986;6.014;2023-08-01T13:29:46;6.32;;;2.38;;
56161;SDS011;42045;52.986;6.014;2023-08-01T13:32:15;7.88;;;2.83;;
56161;SDS011;42045;52.986;6.014;2023-08-01T13:34:40;4.50;;;2.20;;
56161;SDS011;42045;52.986;6.014;2023-08-01T13:37:06;4.60;;;2.25;;
56161;SDS011;42045;52.986;6.014;2023-08-01T13:39:34;6.25;;;1.95;;
56161;SDS011;42045;52.986;6.014;2023-08-01T13:41:59;7.63;;;2.35;;
56161;SDS011;42045;52.986;6.014;2023-08-01T13:44:25;5.55;;;1.70;;
56161;SDS011;42045;52.986;6.014;2023-08-01T13:46:51;6.40;;;2.22;;
56161;SDS011;42045;52.986;6.014;2023-08-01T13:49:17;8.57;;;2.58;;
56161;SDS011;42045;52.986;6.014;2023-08-01T13:51:43;8.88;;;2.13;;
56161;SDS011;42045;52.986;6.014;2023-08-01T13:54:08;6.35;;;2.20;;
56161;SDS011;42045;52.986;6.014;2023-08-01T13:56:34;5.10;;;1.63;;
56161;SDS011;42045;52.986;6.014;2023-08-01T13:59:00;7.47;;;2.55;;
56161;SDS011;42045;52.986;6.014;2023-08-01T14:01:25;6.95;;;2.17;;
56161;SDS011;42045;52.986;6.014;2023-08-01T14:03:51;6.90;;;2.17;;
56161;SDS011;42045;52.986;6.014;2023-08-01T14:06:16;6.65;;;1.85;;
56161;SDS011;42045;52.986;6.014;2023-08-01T14:08:42;3.25;;;1.30;;
56161;SDS011;42045;52.986;6.014;2023-08-01T14:11:09;3.75;;;1.42;;
56161;SDS011;42045;52.986;6.014;2023-08-01T14:13:35;3.90;;;1.33;;
56161;SDS011;42045;52.986;6.014;2023-08-01T14:16:01;5.60;;;1.35;;
56161;SDS011;42045;52.986;6.014;2023-08-01T14:18:28;4.85;;;1.58;;
56161;SDS011;42045;52.986;6.014;2023-08-01T14:20:54;6.45;;;1.65;;
56161;SDS011;42045;52.986;6.014;2023-08-01T14:23:20;3.45;;;1.65;;
56161;SDS011;42045;52.986;6.014;2023-08-01T14:25:46;5.60;;;1.63;;
56161;SDS011;42045;52.986;6.014;2023-08-01T14:28:12;4.95;;;1.40;;
56161;SDS011;42045;52.986;6.014;2023-08-01T14:30:38;8.85;;;2.05;;
56161;SDS011;42045;52.986;6.014;2023-08-01T14:33:07;5.50;;;2.03;;
56161;SDS011;42045;52.986;6.014;2023-08-01T14:35:34;6.20;;;1.73;;
56161;SDS011;42045;52.986;6.014;2023-08-01T14:38:00;7.57;;;1.73;;
56161;SDS011;42045;52.986;6.014;2023-08-01T14:40:27;6.60;;;1.88;;
56161;SDS011;42045;52.986;6.014;2023-08-01T14:42:53;6.85;;;1.85;;
56161;SDS011;42045;52.986;6.014;2023-08-01T14:45:19;5.82;;;1.67;;
56161;SDS011;42045;52.986;6.014;2023-08-01T14:47:45;3.92;;;1.45;;
56161;SDS011;42045;52.986;6.014;2023-08-01T14:50:11;6.10;;;2.15;;